Maasdam — PFRO — position and weather

sailwx.info

Track history (hours):
 
Tides and Currents Weather Stations Pressure Air Temp Water Temp Dewpoint Dewpoint Depression Visibility Wind Speed Wind Dir Waves Ship Positions

Maasdam

Operator: Holland America Line

Last reported at 2019-Oct-16 16:14 UTC. Time now 2019-Oct-16 19:13 UTC.
Position S 33°36' E 151°45'.

Type: Passenger vessel. MMSI: 244958000.

Date/timePositionNaut miles runAvg speedWind from/ knotsBaromVisibWave heightAir tempDewpointWater temp
2019-Oct-16 16:14S 33°36' E 151°45'313.8
2019-Oct-16 16:00S 33°33' E 151°48'714.9
2019-Oct-16 15:31S 33°28' E 151°54'714.9
2019-Oct-16 15:01S 33°23' E 152°01'714.8
2019-Oct-16 14:31S 33°19' E 152°08'714.7
2019-Oct-16 14:01S 33°14' E 152°14'714.5
2019-Oct-16 13:31S 33°09' E 152°21'918.2
2019-Oct-16 13:01S 33°03' E 152°29'1019.2
2019-Oct-16 12:31S 32°57' E 152°37'918.8
2019-Oct-16 12:01S 32°50' E 152°46'918.8
2019-Oct-16 11:31S 32°44' E 152°54'1019.2
2019-Oct-16 11:00S 32°38' E 153°03'1019.2
2019-Oct-16 10:30S 32°31' E 153°11'2818.8
2019-Oct-16 09:00S 32°12' E 153°36'2017.9 340 / 141009.8 21.019.522.0
2019-Oct-16 07:51S 31°59' E 153°55'817.9
2019-Oct-16 07:26S 31°54' E 154°02'917.9
2019-Oct-16 06:57S 31°49' E 154°09'817.8
2019-Oct-16 06:29S 31°43' E 154°16'714.5
2019-Oct-16 06:00S 31°36' E 154°18'40219.1 010 / 281009.5 5.4 22.020.622.0
2019-Oct-15 09:00S 27°12' E 160°06'4414.6 190 / 151016.1 5.4 18.013.120.0
2019-Oct-15 06:00S 26°42' E 160°42'18118.1 200 / 171015.3 5.4 19.012.422.0
2019-Oct-14 20:00S 24°42' E 163°12'19117.3 190 / 141015.110.8 21.016.420.0
2019-Oct-14 09:00S 22°36' E 165°48'1313.4 170 / 191012.9 5.4 22.020.626.0
2019-Oct-14 08:01S 22°33' E 166°02'416.7
2019-Oct-14 07:47S 22°30' E 166°05'517.0
2019-Oct-14 07:30S 22°27' E 166°09'816.7
2019-Oct-14 07:01S 22°21' E 166°15'713.5
2019-Oct-14 06:30S 22°18' E 166°22'4 8.9
2019-Oct-14 06:00S 22°16' E 166°26'0 0.1
2019-Oct-14 05:31S 22°16' E 166°26'0 0.0
2019-Oct-14 05:01S 22°16' E 166°26'0 0.0
2019-Oct-14 04:31S 22°16' E 166°26'0 0.0
2019-Oct-14 04:01S 22°16' E 166°26'0 0.0
2019-Oct-14 03:31S 22°16' E 166°26'0 0.0
2019-Oct-14 03:01S 22°16' E 166°26'0 0.0
2019-Oct-14 02:31S 22°16' E 166°26'0 0.0
2019-Oct-14 02:01S 22°16' E 166°26'0 0.0
2019-Oct-14 01:31S 22°16' E 166°26'0 0.0
2019-Oct-14 01:01S 22°16' E 166°26'0 0.0
2019-Oct-14 00:31S 22°16' E 166°26'0 0.0
2019-Oct-14 00:01S 22°16' E 166°26'0 0.0
2019-Oct-13 23:31S 22°16' E 166°26'0 0.0
2019-Oct-13 23:01S 22°16' E 166°26'0 0.0
2019-Oct-13 22:31S 22°16' E 166°26'0 0.0
2019-Oct-13 22:01S 22°16' E 166°26'0 0.0
2019-Oct-13 21:28S 22°16' E 166°26'0 0.0
2019-Oct-13 21:01S 22°16' E 166°26'0 0.1
2019-Oct-13 20:30S 22°16' E 166°26'3 5.1
2019-Oct-13 20:00S 22°18' E 166°25'713.1
2019-Oct-13 19:30S 22°21' E 166°31'611.9
2019-Oct-13 19:00S 22°23' E 166°37'611.9
2019-Oct-13 18:30S 22°23' E 166°44'72 6.8
2019-Oct-13 08:00S 21°36' E 167°42'74 3.1 340 / 111012.7 5.4 22.020.626.0
2019-Oct-12 08:00S 22°48' E 167°24'8 8.2 070 / 161014.9 5.4 23.023.026.0
2019-Oct-12 07:00S 22°42' E 167°18'13 1.0 070 / 191014.2 5.4 24.024.027.0
2019-Oct-11 19:00S 22°48' E 167°30'100 9.1 130 / 21014.310.8 21.019.519.0
2019-Oct-11 08:00S 21°12' E 167°00'2412.0 130 / 51013.4 5.4 24.024.027.0
2019-Oct-11 06:00S 20°48' E 167°00'116 5.5 280 / 41011.2 5.4 25.025.027.0
2019-Oct-10 09:00S 20°18' E 169°00'40 2.8 140 / 61012.5 5.4 23.023.027.0
2019-Oct-09 19:00S 20°24' E 169°42'15615.6 090 / 121013.110.8 21.519.322.0
2019-Oct-09 09:00S 22°54' E 170°30'3812.6 110 / 211016.2 5.4 22.022.022.0
2019-Oct-09 06:00S 23°30' E 170°42'18216.6 120 / 221015.0 5.4 21.021.022.0
2019-Oct-08 19:00S 26°24' E 171°42'18817.1 090 / 171018.110.8 19.016.721.0
2019-Oct-08 08:00S 29°24' E 172°42'42617.9 130 / 181021.0 5.4 18.016.422.0
2019-Oct-07 08:10S 36°14' E 174°56'4 9.7
2019-Oct-07 07:45S 36°19' E 174°57'2 9.8
2019-Oct-07 07:30S 36°21' E 174°57'5 9.9
2019-Oct-07 07:00S 36°26' E 174°58'8675.5
2019-Oct-07 07:00S 36°18' E 174°54'1326.7 040 / 81022.7 5.4 16.014.416.0
2019-Oct-07 06:30S 36°31' E 174°58'5 9.8
2019-Oct-07 06:00S 36°36' E 174°57'5 9.6
2019-Oct-07 05:30S 36°40' E 174°54'510.0
2019-Oct-07 05:00S 36°44' E 174°51'611.9
2019-Oct-07 04:30S 36°49' E 174°50'3 6.4
2019-Oct-07 04:00S 36°51' E 174°46'0 0.0
2019-Oct-07 03:24S 36°51' E 174°46'0 0.0
2019-Oct-07 02:54S 36°51' E 174°46'0 0.0
2019-Oct-07 02:00S 36°51' E 174°46'0 0.0
2019-Oct-07 01:30S 36°51' E 174°46'0 0.0
2019-Oct-07 01:00S 36°51' E 174°46'0 0.0
2019-Oct-07 00:30S 36°51' E 174°46'0 0.1
2019-Oct-07 00:00S 36°51' E 174°46'0 0.1
2019-Oct-06 23:30S 36°51' E 174°46'0 0.1
2019-Oct-06 23:00S 36°51' E 174°46'0 0.1
2019-Oct-06 22:30S 36°51' E 174°46'0 0.0
2019-Oct-06 22:00S 36°51' E 174°46'0 0.0
2019-Oct-06 21:30S 36°51' E 174°46'0 0.0
2019-Oct-06 20:57S 36°51' E 174°46'0 0.0
2019-Oct-06 20:30S 36°51' E 174°46'0 0.0
2019-Oct-06 20:00S 36°51' E 174°46'0 0.0
2019-Oct-06 19:30S 36°51' E 174°46'0 0.0
2019-Oct-06 19:00S 36°51' E 174°46'0 0.0
2019-Oct-06 18:30S 36°51' E 174°46'0 0.0
2019-Oct-06 18:00S 36°51' E 174°46'0 0.1
2019-Oct-06 17:30S 36°50' E 174°46'3 6.3
2019-Oct-06 17:00S 36°49' E 174°50'510.6
2019-Oct-06 16:30S 36°44' E 174°51'  
Track history (hours):
 
Tides and Currents Weather Stations Pressure Air Temp Water Temp Dewpoint Dewpoint Depression Visibility Wind Speed Wind Dir Waves Ship Positions

Maasdam

Operator: Holland America Line

Last reported at 2019-Oct-16 16:14 UTC. Time now 2019-Oct-16 19:13 UTC.
Position S 33°36' E 151°45'.

Type: Passenger vessel. MMSI: 244958000.

Date/timePositionNaut miles runAvg speedWind from/ knotsBaromVisibWave heightAir tempDewpointWater temp
2019-Oct-16 16:14S 33°36' E 151°45'313.8
2019-Oct-16 16:00S 33°33' E 151°48'714.9
2019-Oct-16 15:31S 33°28' E 151°54'714.9
2019-Oct-16 15:01S 33°23' E 152°01'714.8
2019-Oct-16 14:31S 33°19' E 152°08'714.7
2019-Oct-16 14:01S 33°14' E 152°14'714.5
2019-Oct-16 13:31S 33°09' E 152°21'918.2
2019-Oct-16 13:01S 33°03' E 152°29'1019.2
2019-Oct-16 12:31S 32°57' E 152°37'918.8
2019-Oct-16 12:01S 32°50' E 152°46'918.8
2019-Oct-16 11:31S 32°44' E 152°54'1019.2
2019-Oct-16 11:00S 32°38' E 153°03'1019.2
2019-Oct-16 10:30S 32°31' E 153°11'2818.8
2019-Oct-16 09:00S 32°12' E 153°36'2017.9 340 / 141009.8 21.019.522.0
2019-Oct-16 07:51S 31°59' E 153°55'817.9
2019-Oct-16 07:26S 31°54' E 154°02'917.9
2019-Oct-16 06:57S 31°49' E 154°09'817.8
2019-Oct-16 06:29S 31°43' E 154°16'714.5
2019-Oct-16 06:00S 31°36' E 154°18'40219.1 010 / 281009.5 5.4 22.020.622.0
2019-Oct-15 09:00S 27°12' E 160°06'4414.6 190 / 151016.1 5.4 18.013.120.0
2019-Oct-15 06:00S 26°42' E 160°42'18118.1 200 / 171015.3 5.4 19.012.422.0
2019-Oct-14 20:00S 24°42' E 163°12'19117.3 190 / 141015.110.8 21.016.420.0
2019-Oct-14 09:00S 22°36' E 165°48'1313.4 170 / 191012.9 5.4 22.020.626.0
2019-Oct-14 08:01S 22°33' E 166°02'416.7
2019-Oct-14 07:47S 22°30' E 166°05'517.0
2019-Oct-14 07:30S 22°27' E 166°09'816.7
2019-Oct-14 07:01S 22°21' E 166°15'713.5
2019-Oct-14 06:30S 22°18' E 166°22'4 8.9
2019-Oct-14 06:00S 22°16' E 166°26'0 0.1
2019-Oct-14 05:31S 22°16' E 166°26'0 0.0
2019-Oct-14 05:01S 22°16' E 166°26'0 0.0
2019-Oct-14 04:31S 22°16' E 166°26'0 0.0
2019-Oct-14 04:01S 22°16' E 166°26'0 0.0
2019-Oct-14 03:31S 22°16' E 166°26'0 0.0
2019-Oct-14 03:01S 22°16' E 166°26'0 0.0
2019-Oct-14 02:31S 22°16' E 166°26'0 0.0
2019-Oct-14 02:01S 22°16' E 166°26'0 0.0
2019-Oct-14 01:31S 22°16' E 166°26'0 0.0
2019-Oct-14 01:01S 22°16' E 166°26'0 0.0
2019-Oct-14 00:31S 22°16' E 166°26'0 0.0
2019-Oct-14 00:01S 22°16' E 166°26'0 0.0
2019-Oct-13 23:31S 22°16' E 166°26'0 0.0
2019-Oct-13 23:01S 22°16' E 166°26'0 0.0
2019-Oct-13 22:31S 22°16' E 166°26'0 0.0
2019-Oct-13 22:01S 22°16' E 166°26'0 0.0
2019-Oct-13 21:28S 22°16' E 166°26'0 0.0
2019-Oct-13 21:01S 22°16' E 166°26'0 0.1
2019-Oct-13 20:30S 22°16' E 166°26'3 5.1
2019-Oct-13 20:00S 22°18' E 166°25'713.1
2019-Oct-13 19:30S 22°21' E 166°31'611.9
2019-Oct-13 19:00S 22°23' E 166°37'611.9
2019-Oct-13 18:30S 22°23' E 166°44'72 6.8
2019-Oct-13 08:00S 21°36' E 167°42'74 3.1 340 / 111012.7 5.4 22.020.626.0
2019-Oct-12 08:00S 22°48' E 167°24'8 8.2 070 / 161014.9 5.4 23.023.026.0
2019-Oct-12 07:00S 22°42' E 167°18'13 1.0 070 / 191014.2 5.4 24.024.027.0
2019-Oct-11 19:00S 22°48' E 167°30'100 9.1 130 / 21014.310.8 21.019.519.0
2019-Oct-11 08:00S 21°12' E 167°00'2412.0 130 / 51013.4 5.4 24.024.027.0
2019-Oct-11 06:00S 20°48' E 167°00'116 5.5 280 / 41011.2 5.4 25.025.027.0
2019-Oct-10 09:00S 20°18' E 169°00'40 2.8 140 / 61012.5 5.4 23.023.027.0
2019-Oct-09 19:00S 20°24' E 169°42'15615.6 090 / 121013.110.8 21.519.322.0
2019-Oct-09 09:00S 22°54' E 170°30'3812.6 110 / 211016.2 5.4 22.022.022.0
2019-Oct-09 06:00S 23°30' E 170°42'18216.6 120 / 221015.0 5.4 21.021.022.0
2019-Oct-08 19:00S 26°24' E 171°42'18817.1 090 / 171018.110.8 19.016.721.0
2019-Oct-08 08:00S 29°24' E 172°42'42617.9 130 / 181021.0 5.4 18.016.422.0
2019-Oct-07 08:10S 36°14' E 174°56'4 9.7
2019-Oct-07 07:45S 36°19' E 174°57'2 9.8
2019-Oct-07 07:30S 36°21' E 174°57'5 9.9
2019-Oct-07 07:00S 36°26' E 174°58'8675.5
2019-Oct-07 07:00S 36°18' E 174°54'1326.7 040 / 81022.7 5.4 16.014.416.0
2019-Oct-07 06:30S 36°31' E 174°58'5 9.8
2019-Oct-07 06:00S 36°36' E 174°57'5 9.6
2019-Oct-07 05:30S 36°40' E 174°54'510.0
2019-Oct-07 05:00S 36°44' E 174°51'611.9
2019-Oct-07 04:30S 36°49' E 174°50'3 6.4
2019-Oct-07 04:00S 36°51' E 174°46'0 0.0
2019-Oct-07 03:24S 36°51' E 174°46'0 0.0
2019-Oct-07 02:54S 36°51' E 174°46'0 0.0
2019-Oct-07 02:00S 36°51' E 174°46'0 0.0
2019-Oct-07 01:30S 36°51' E 174°46'0 0.0
2019-Oct-07 01:00S 36°51' E 174°46'0 0.0
2019-Oct-07 00:30S 36°51' E 174°46'0 0.1
2019-Oct-07 00:00S 36°51' E 174°46'0 0.1
2019-Oct-06 23:30S 36°51' E 174°46'0 0.1
2019-Oct-06 23:00S 36°51' E 174°46'0 0.1
2019-Oct-06 22:30S 36°51' E 174°46'0 0.0
2019-Oct-06 22:00S 36°51' E 174°46'0 0.0
2019-Oct-06 21:30S 36°51' E 174°46'0 0.0
2019-Oct-06 20:57S 36°51' E 174°46'0 0.0
2019-Oct-06 20:30S 36°51' E 174°46'0 0.0
2019-Oct-06 20:00S 36°51' E 174°46'0 0.0
2019-Oct-06 19:30S 36°51' E 174°46'0 0.0
2019-Oct-06 19:00S 36°51' E 174°46'0 0.0
2019-Oct-06 18:30S 36°51' E 174°46'0 0.0
2019-Oct-06 18:00S 36°51' E 174°46'0 0.1
2019-Oct-06 17:30S 36°50' E 174°46'3 6.3
2019-Oct-06 17:00S 36°49' E 174°50'510.6
2019-Oct-06 16:30S 36°44' E 174°51'  

Dump ship's entire track history